< < Back
Terminal Aerodrome Forecast


Current Version              Previous Versions:   1  2  3  4  5  6  7  8  9  

Terminal Aerodrome Forecast

103
FTUS42 KGSP 181300 AAA
TAFAVL
TAF AMD
KAVL 181301Z 1813/1912 36006KT P6SM BKN040
     FM181800 00000KT P6SM SCT045
     FM190700 00000KT 5SM BR SCT010
     FM190800 00000KT 4SM BR BKN005=

Latest METAR

875
SAUS70 KWBC 181500 RRE
MTRAVL
METAR KAVL 181454Z VRB03KT 10SM OVC100 20/14 A3007 RMK AO2 SLP161
T02000139 51008


USA.gov is the U.S. government's official web portal to all federal, state and local government web resources and services.